Terminal Aerodrome Forecast
Issued by NWS

Home | Current Version | Previous Version | Text Only | Print | Product List | Glossary Off
Versions: 1 2 3 4 5 6 7 8 9 10 11 12 13 14 15 16 17 18 19 20 21 22

000
FTUS43 KMPX 220500
TAFRWF
TAF
KRWF 220540Z 2206/2306 20010KT P6SM SCT150
     FM220800 22012KT P6SM FEW050 BKN090
     FM221000 26010KT P6SM SCT120
     FM221400 33013G19KT P6SM SCT250
     FM230000 34007KT P6SM FEW250=

USA.gov is the U.S. government's official web portal to all federal, state and local government web resources and services.